sensor_id;sensor_type;location;lat;lon;timestamp;P1;durP1;ratioP1;P2;durP2;ratioP2
8435;SDS011;4255;48.730;9.156;2023-03-17T00:00:17;11.50;;;7.70;;
8435;SDS011;4255;48.730;9.156;2023-03-17T00:02:44;10.93;;;7.35;;
8435;SDS011;4255;48.730;9.156;2023-03-17T00:05:15;10.82;;;7.38;;
8435;SDS011;4255;48.730;9.156;2023-03-17T00:07:43;14.27;;;8.20;;
8435;SDS011;4255;48.730;9.156;2023-03-17T00:10:14;13.02;;;7.03;;
8435;SDS011;4255;48.730;9.156;2023-03-17T00:12:47;10.88;;;8.02;;
8435;SDS011;4255;48.730;9.156;2023-03-17T00:15:14;11.20;;;7.95;;
8435;SDS011;4255;48.730;9.156;2023-03-17T00:17:42;9.25;;;7.68;;
8435;SDS011;4255;48.730;9.156;2023-03-17T00:20:13;9.40;;;6.90;;
8435;SDS011;4255;48.730;9.156;2023-03-17T00:22:48;10.98;;;8.32;;
8435;SDS011;4255;48.730;9.156;2023-03-17T00:25:24;8.68;;;7.78;;
8435;SDS011;4255;48.730;9.156;2023-03-17T00:27:52;9.82;;;7.97;;
8435;SDS011;4255;48.730;9.156;2023-03-17T00:30:18;9.98;;;7.97;;
8435;SDS011;4255;48.730;9.156;2023-03-17T00:32:45;8.45;;;7.55;;
8435;SDS011;4255;48.730;9.156;2023-03-17T00:35:15;9.55;;;7.93;;
8435;SDS011;4255;48.730;9.156;2023-03-17T00:37:43;10.48;;;6.95;;
8435;SDS011;4255;48.730;9.156;2023-03-17T00:40:14;12.10;;;7.75;;
8435;SDS011;4255;48.730;9.156;2023-03-17T00:42:47;12.93;;;7.63;;
8435;SDS011;4255;48.730;9.156;2023-03-17T00:45:15;8.02;;;7.13;;
8435;SDS011;4255;48.730;9.156;2023-03-17T00:47:41;8.57;;;7.43;;
8435;SDS011;4255;48.730;9.156;2023-03-17T00:50:12;10.15;;;7.70;;
8435;SDS011;4255;48.730;9.156;2023-03-17T00:52:40;10.48;;;7.45;;
8435;SDS011;4255;48.730;9.156;2023-03-17T00:55:07;10.48;;;7.72;;
8435;SDS011;4255;48.730;9.156;2023-03-17T00:57:34;9.10;;;7.03;;
8435;SDS011;4255;48.730;9.156;2023-03-17T01:00:01;9.02;;;7.50;;
8435;SDS011;4255;48.730;9.156;2023-03-17T01:02:28;7.25;;;6.20;;
8435;SDS011;4255;48.730;9.156;2023-03-17T01:04:54;7.93;;;7.18;;
8435;SDS011;4255;48.730;9.156;2023-03-17T01:07:21;9.13;;;8.13;;
8435;SDS011;4255;48.730;9.156;2023-03-17T01:09:48;7.85;;;6.97;;
8435;SDS011;4255;48.730;9.156;2023-03-17T01:12:14;10.38;;;7.55;;
8435;SDS011;4255;48.730;9.156;2023-03-17T01:14:40;9.13;;;7.90;;
8435;SDS011;4255;48.730;9.156;2023-03-17T01:17:11;10.23;;;7.73;;
8435;SDS011;4255;48.730;9.156;2023-03-17T01:19:39;10.73;;;7.60;;
8435;SDS011;4255;48.730;9.156;2023-03-17T01:22:05;10.40;;;8.13;;
8435;SDS011;4255;48.730;9.156;2023-03-17T01:24:30;10.80;;;8.00;;
8435;SDS011;4255;48.730;9.156;2023-03-17T01:26:57;13.50;;;9.63;;
8435;SDS011;4255;48.730;9.156;2023-03-17T01:29:22;9.03;;;7.77;;
8435;SDS011;4255;48.730;9.156;2023-03-17T01:31:48;9.83;;;8.27;;
8435;SDS011;4255;48.730;9.156;2023-03-17T01:34:14;10.80;;;8.20;;
8435;SDS011;4255;48.730;9.156;2023-03-17T01:36:39;8.87;;;7.90;;
8435;SDS011;4255;48.730;9.156;2023-03-17T01:39:05;9.32;;;8.00;;
8435;SDS011;4255;48.730;9.156;2023-03-17T01:41:35;10.57;;;8.30;;
8435;SDS011;4255;48.730;9.156;2023-03-17T01:44:01;9.70;;;8.13;;
8435;SDS011;4255;48.730;9.156;2023-03-17T01:46:29;10.43;;;7.53;;
8435;SDS011;4255;48.730;9.156;2023-03-17T01:51:37;9.88;;;7.72;;
8435;SDS011;4255;48.730;9.156;2023-03-17T01:59:48;10.00;;;7.20;;
8435;SDS011;4255;48.730;9.156;2023-03-17T02:02:18;9.05;;;7.28;;
8435;SDS011;4255;48.730;9.156;2023-03-17T02:04:48;11.63;;;8.10;;
8435;SDS011;4255;48.730;9.156;2023-03-17T02:07:17;9.43;;;7.30;;
8435;SDS011;4255;48.730;9.156;2023-03-17T02:09:44;11.10;;;7.68;;
8435;SDS011;4255;48.730;9.156;2023-03-17T02:12:10;12.98;;;8.18;;
8435;SDS011;4255;48.730;9.156;2023-03-17T02:14:37;9.90;;;7.40;;
8435;SDS011;4255;48.730;9.156;2023-03-17T02:17:04;9.38;;;7.65;;
8435;SDS011;4255;48.730;9.156;2023-03-17T02:19:30;11.52;;;8.00;;
8435;SDS011;4255;48.730;9.156;2023-03-17T02:21:56;8.60;;;7.70;;
8435;SDS011;4255;48.730;9.156;2023-03-17T02:24:56;9.35;;;7.30;;
8435;SDS011;4255;48.730;9.156;2023-03-17T02:27:25;9.30;;;6.93;;
8435;SDS011;4255;48.730;9.156;2023-03-17T02:29:55;9.15;;;7.03;;
8435;SDS011;4255;48.730;9.156;2023-03-17T02:32:22;8.65;;;7.75;;
8435;SDS011;4255;48.730;9.156;2023-03-17T02:34:48;9.23;;;7.97;;
8435;SDS011;4255;48.730;9.156;2023-03-17T02:37:14;8.87;;;6.93;;
8435;SDS011;4255;48.730;9.156;2023-03-17T02:39:41;8.90;;;7.85;;
8435;SDS011;4255;48.730;9.156;2023-03-17T02:42:06;9.37;;;7.50;;
8435;SDS011;4255;48.730;9.156;2023-03-17T02:44:33;9.00;;;7.65;;
8435;SDS011;4255;48.730;9.156;2023-03-17T02:46:59;7.65;;;6.72;;
8435;SDS011;4255;48.730;9.156;2023-03-17T02:49:26;8.85;;;7.85;;
8435;SDS011;4255;48.730;9.156;2023-03-17T02:51:52;9.07;;;7.55;;
8435;SDS011;4255;48.730;9.156;2023-03-17T02:54:18;10.07;;;8.20;;
8435;SDS011;4255;48.730;9.156;2023-03-17T02:56:44;9.57;;;7.28;;
8435;SDS011;4255;48.730;9.156;2023-03-17T02:59:09;10.23;;;8.20;;
8435;SDS011;4255;48.730;9.156;2023-03-17T03:01:35;9.83;;;7.30;;
8435;SDS011;4255;48.730;9.156;2023-03-17T03:04:02;10.40;;;8.40;;
8435;SDS011;4255;48.730;9.156;2023-03-17T03:06:28;8.87;;;6.93;;
8435;SDS011;4255;48.730;9.156;2023-03-17T03:08:53;14.00;;;7.70;;
8435;SDS011;4255;48.730;9.156;2023-03-17T03:11:19;9.33;;;7.07;;
8435;SDS011;4255;48.730;9.156;2023-03-17T03:13:45;10.63;;;7.40;;
8435;SDS011;4255;48.730;9.156;2023-03-17T03:16:11;10.13;;;7.40;;
8435;SDS011;4255;48.730;9.156;2023-03-17T03:18:36;12.27;;;7.70;;
8435;SDS011;4255;48.730;9.156;2023-03-17T03:21:02;8.27;;;7.33;;
8435;SDS011;4255;48.730;9.156;2023-03-17T03:23:28;8.32;;;7.07;;
8435;SDS011;4255;48.730;9.156;2023-03-17T03:25:54;7.10;;;6.40;;
8435;SDS011;4255;48.730;9.156;2023-03-17T03:28:20;8.70;;;7.43;;
8435;SDS011;4255;48.730;9.156;2023-03-17T03:30:46;10.67;;;6.90;;
8435;SDS011;4255;48.730;9.156;2023-03-17T03:33:12;8.97;;;7.60;;
8435;SDS011;4255;48.730;9.156;2023-03-17T03:35:38;9.73;;;7.88;;
8435;SDS011;4255;48.730;9.156;2023-03-17T03:38:05;13.45;;;7.60;;
8435;SDS011;4255;48.730;9.156;2023-03-17T03:40:32;8.73;;;7.70;;
8435;SDS011;4255;48.730;9.156;2023-03-17T03:42:58;8.77;;;7.15;;
8435;SDS011;4255;48.730;9.156;2023-03-17T03:45:24;10.47;;;8.27;;
8435;SDS011;4255;48.730;9.156;2023-03-17T03:47:50;9.00;;;8.10;;
8435;SDS011;4255;48.730;9.156;2023-03-17T03:50:15;18.90;;;6.93;;
8435;SDS011;4255;48.730;9.156;2023-03-17T03:52:41;9.37;;;7.50;;
8435;SDS011;4255;48.730;9.156;2023-03-17T03:55:07;8.67;;;7.77;;
8435;SDS011;4255;48.730;9.156;2023-03-17T03:57:33;10.43;;;8.30;;
8435;SDS011;4255;48.730;9.156;2023-03-17T03:59:59;8.18;;;7.15;;
8435;SDS011;4255;48.730;9.156;2023-03-17T04:02:25;11.30;;;8.48;;
8435;SDS011;4255;48.730;9.156;2023-03-17T04:04:51;9.07;;;7.50;;
8435;SDS011;4255;48.730;9.156;2023-03-17T04:07:18;10.15;;;7.80;;
8435;SDS011;4255;48.730;9.156;2023-03-17T04:09:45;8.80;;;7.97;;
8435;SDS011;4255;48.730;9.156;2023-03-17T04:12:13;9.48;;;8.20;;
8435;SDS011;4255;48.730;9.156;2023-03-17T04:14:39;10.45;;;8.10;;
8435;SDS011;4255;48.730;9.156;2023-03-17T04:17:06;13.02;;;8.20;;
8435;SDS011;4255;48.730;9.156;2023-03-17T04:19:33;12.07;;;8.20;;
8435;SDS011;4255;48.730;9.156;2023-03-17T04:21:58;12.03;;;8.10;;
8435;SDS011;4255;48.730;9.156;2023-03-17T04:24:24;13.30;;;8.60;;
8435;SDS011;4255;48.730;9.156;2023-03-17T04:26:51;12.13;;;8.93;;
8435;SDS011;4255;48.730;9.156;2023-03-17T04:29:17;11.53;;;8.53;;
8435;SDS011;4255;48.730;9.156;2023-03-17T04:31:44;9.40;;;8.13;;
8435;SDS011;4255;48.730;9.156;2023-03-17T04:34:12;10.00;;;7.87;;
8435;SDS011;4255;48.730;9.156;2023-03-17T04:36:40;7.78;;;6.60;;
8435;SDS011;4255;48.730;9.156;2023-03-17T04:39:07;15.05;;;8.20;;
8435;SDS011;4255;48.730;9.156;2023-03-17T04:41:32;10.00;;;8.37;;
8435;SDS011;4255;48.730;9.156;2023-03-17T04:43:58;11.52;;;7.95;;
8435;SDS011;4255;48.730;9.156;2023-03-17T04:46:24;14.77;;;8.30;;
8435;SDS011;4255;48.730;9.156;2023-03-17T04:48:50;10.03;;;7.40;;
8435;SDS011;4255;48.730;9.156;2023-03-17T04:51:16;9.23;;;6.53;;
8435;SDS011;4255;48.730;9.156;2023-03-17T04:53:42;7.90;;;7.10;;
8435;SDS011;4255;48.730;9.156;2023-03-17T04:56:08;10.52;;;8.27;;
8435;SDS011;4255;48.730;9.156;2023-03-17T04:58:34;9.45;;;6.80;;
8435;SDS011;4255;48.730;9.156;2023-03-17T05:01:00;9.13;;;7.27;;
8435;SDS011;4255;48.730;9.156;2023-03-17T05:03:27;9.27;;;5.95;;
8435;SDS011;4255;48.730;9.156;2023-03-17T05:05:54;7.18;;;6.50;;
8435;SDS011;4255;48.730;9.156;2023-03-17T05:08:21;8.15;;;6.95;;
8435;SDS011;4255;48.730;9.156;2023-03-17T05:10:47;7.70;;;7.00;;
8435;SDS011;4255;48.730;9.156;2023-03-17T05:13:12;10.80;;;7.60;;
8435;SDS011;4255;48.730;9.156;2023-03-17T05:15:38;9.37;;;7.70;;
8435;SDS011;4255;48.730;9.156;2023-03-17T05:18:04;14.38;;;8.48;;
8435;SDS011;4255;48.730;9.156;2023-03-17T05:20:30;8.07;;;7.27;;
8435;SDS011;4255;48.730;9.156;2023-03-17T05:22:56;7.93;;;7.13;;
8435;SDS011;4255;48.730;9.156;2023-03-17T05:25:21;8.20;;;7.40;;
8435;SDS011;4255;48.730;9.156;2023-03-17T05:27:47;8.47;;;7.27;;
8435;SDS011;4255;48.730;9.156;2023-03-17T05:30:13;16.70;;;8.57;;
8435;SDS011;4255;48.730;9.156;2023-03-17T05:32:39;9.30;;;7.93;;
8435;SDS011;4255;48.730;9.156;2023-03-17T05:35:06;11.20;;;8.93;;
8435;SDS011;4255;48.730;9.156;2023-03-17T05:37:31;14.20;;;7.57;;
8435;SDS011;4255;48.730;9.156;2023-03-17T05:39:57;9.70;;;8.00;;
8435;SDS011;4255;48.730;9.156;2023-03-17T05:42:23;7.83;;;6.30;;
8435;SDS011;4255;48.730;9.156;2023-03-17T05:44:49;10.70;;;7.77;;
8435;SDS011;4255;48.730;9.156;2023-03-17T05:47:14;8.20;;;6.43;;
8435;SDS011;4255;48.730;9.156;2023-03-17T05:49:40;6.47;;;5.30;;
8435;SDS011;4255;48.730;9.156;2023-03-17T05:52:05;14.40;;;5.90;;
8435;SDS011;4255;48.730;9.156;2023-03-17T05:54:31;7.43;;;5.27;;
8435;SDS011;4255;48.730;9.156;2023-03-17T05:56:57;7.23;;;5.67;;
8435;SDS011;4255;48.730;9.156;2023-03-17T05:59:22;6.20;;;5.47;;
8435;SDS011;4255;48.730;9.156;2023-03-17T06:01:49;5.75;;;5.13;;
8435;SDS011;4255;48.730;9.156;2023-03-17T06:04:14;5.30;;;4.80;;
8435;SDS011;4255;48.730;9.156;2023-03-17T06:06:40;4.60;;;3.73;;
8435;SDS011;4255;48.730;9.156;2023-03-17T06:09:06;6.83;;;5.87;;
8435;SDS011;4255;48.730;9.156;2023-03-17T06:11:32;5.38;;;4.85;;
8435;SDS011;4255;48.730;9.156;2023-03-17T06:13:58;8.00;;;3.63;;
8435;SDS011;4255;48.730;9.156;2023-03-17T06:16:23;6.43;;;5.23;;
8435;SDS011;4255;48.730;9.156;2023-03-17T06:18:50;10.45;;;4.57;;
8435;SDS011;4255;48.730;9.156;2023-03-17T06:21:16;10.27;;;5.17;;
8435;SDS011;4255;48.730;9.156;2023-03-17T06:23:41;5.60;;;4.57;;
8435;SDS011;4255;48.730;9.156;2023-03-17T06:26:07;5.97;;;4.47;;
8435;SDS011;4255;48.730;9.156;2023-03-17T06:28:33;7.30;;;5.57;;
8435;SDS011;4255;48.730;9.156;2023-03-17T06:30:58;7.07;;;5.50;;
8435;SDS011;4255;48.730;9.156;2023-03-17T06:33:24;5.90;;;4.73;;
8435;SDS011;4255;48.730;9.156;2023-03-17T06:35:50;4.80;;;4.00;;
8435;SDS011;4255;48.730;9.156;2023-03-17T06:38:15;5.20;;;4.00;;
8435;SDS011;4255;48.730;9.156;2023-03-17T06:40:41;4.20;;;3.47;;
8435;SDS011;4255;48.730;9.156;2023-03-17T06:43:07;4.67;;;3.83;;
8435;SDS011;4255;48.730;9.156;2023-03-17T06:45:33;5.60;;;3.87;;
8435;SDS011;4255;48.730;9.156;2023-03-17T06:47:59;4.32;;;3.95;;
8435;SDS011;4255;48.730;9.156;2023-03-17T06:50:25;5.15;;;4.63;;
8435;SDS011;4255;48.730;9.156;2023-03-17T06:52:51;4.80;;;4.40;;
8435;SDS011;4255;48.730;9.156;2023-03-17T06:55:17;4.33;;;3.93;;
8435;SDS011;4255;48.730;9.156;2023-03-17T06:57:42;7.13;;;4.90;;
8435;SDS011;4255;48.730;9.156;2023-03-17T07:00:08;9.07;;;5.90;;
8435;SDS011;4255;48.730;9.156;2023-03-17T07:02:38;9.05;;;5.03;;
8435;SDS011;4255;48.730;9.156;2023-03-17T07:05:04;6.90;;;4.72;;
8435;SDS011;4255;48.730;9.156;2023-03-17T07:07:30;6.72;;;4.93;;
8435;SDS011;4255;48.730;9.156;2023-03-17T07:09:56;9.75;;;6.70;;
8435;SDS011;4255;48.730;9.156;2023-03-17T07:12:22;4.17;;;3.77;;
8435;SDS011;4255;48.730;9.156;2023-03-17T07:14:47;5.43;;;4.97;;
8435;SDS011;4255;48.730;9.156;2023-03-17T07:17:14;6.63;;;3.83;;
8435;SDS011;4255;48.730;9.156;2023-03-17T07:19:40;5.10;;;4.23;;
8435;SDS011;4255;48.730;9.156;2023-03-17T07:22:06;7.63;;;3.88;;
8435;SDS011;4255;48.730;9.156;2023-03-17T07:24:35;8.48;;;3.90;;
8435;SDS011;4255;48.730;9.156;2023-03-17T07:27:00;4.60;;;4.20;;
8435;SDS011;4255;48.730;9.156;2023-03-17T07:29:26;7.87;;;5.10;;
8435;SDS011;4255;48.730;9.156;2023-03-17T07:31:53;4.85;;;3.90;;
8435;SDS011;4255;48.730;9.156;2023-03-17T07:34:19;5.03;;;4.53;;
8435;SDS011;4255;48.730;9.156;2023-03-17T07:36:44;5.40;;;4.90;;
8435;SDS011;4255;48.730;9.156;2023-03-17T07:39:10;4.20;;;3.80;;
8435;SDS011;4255;48.730;9.156;2023-03-17T07:41:36;5.80;;;4.15;;
8435;SDS011;4255;48.730;9.156;2023-03-17T07:44:02;4.00;;;3.60;;
8435;SDS011;4255;48.730;9.156;2023-03-17T07:46:28;7.03;;;4.33;;
8435;SDS011;4255;48.730;9.156;2023-03-17T07:48:54;4.73;;;4.33;;
8435;SDS011;4255;48.730;9.156;2023-03-17T07:51:21;5.15;;;4.00;;
8435;SDS011;4255;48.730;9.156;2023-03-17T07:53:47;3.40;;;3.20;;
8435;SDS011;4255;48.730;9.156;2023-03-17T07:56:17;7.38;;;3.80;;
8435;SDS011;4255;48.730;9.156;2023-03-17T07:58:42;7.80;;;4.33;;
8435;SDS011;4255;48.730;9.156;2023-03-17T08:01:08;4.80;;;3.10;;
8435;SDS011;4255;48.730;9.156;2023-03-17T08:03:34;4.70;;;3.17;;
8435;SDS011;4255;48.730;9.156;2023-03-17T08:06:00;6.93;;;3.78;;
8435;SDS011;4255;48.730;9.156;2023-03-17T08:08:27;4.35;;;3.92;;
8435;SDS011;4255;48.730;9.156;2023-03-17T08:10:57;3.83;;;3.53;;
8435;SDS011;4255;48.730;9.156;2023-03-17T08:13:30;4.05;;;3.33;;
8435;SDS011;4255;48.730;9.156;2023-03-17T08:15:56;3.85;;;3.05;;
8435;SDS011;4255;48.730;9.156;2023-03-17T08:18:22;4.73;;;3.53;;
8435;SDS011;4255;48.730;9.156;2023-03-17T08:20:48;4.40;;;3.50;;
8435;SDS011;4255;48.730;9.156;2023-03-17T08:23:15;3.60;;;3.33;;
8435;SDS011;4255;48.730;9.156;2023-03-17T08:25:41;3.20;;;3.00;;
8435;SDS011;4255;48.730;9.156;2023-03-17T08:28:07;4.10;;;3.20;;
8435;SDS011;4255;48.730;9.156;2023-03-17T08:30:34;5.37;;;3.73;;
8435;SDS011;4255;48.730;9.156;2023-03-17T08:33:01;6.47;;;4.68;;
8435;SDS011;4255;48.730;9.156;2023-03-17T08:35:28;3.40;;;2.80;;
8435;SDS011;4255;48.730;9.156;2023-03-17T08:37:54;3.58;;;3.28;;
8435;SDS011;4255;48.730;9.156;2023-03-17T08:40:21;4.63;;;4.23;;
8435;SDS011;4255;48.730;9.156;2023-03-17T08:42:47;3.42;;;3.13;;
8435;SDS011;4255;48.730;9.156;2023-03-17T08:45:13;3.87;;;3.40;;
8435;SDS011;4255;48.730;9.156;2023-03-17T08:47:40;3.07;;;2.83;;
8435;SDS011;4255;48.730;9.156;2023-03-17T08:50:07;2.97;;;2.40;;
8435;SDS011;4255;48.730;9.156;2023-03-17T08:52:39;2.90;;;2.70;;
8435;SDS011;4255;48.730;9.156;2023-03-17T08:55:05;3.37;;;3.07;;
8435;SDS011;4255;48.730;9.156;2023-03-17T08:57:33;5.00;;;4.50;;
8435;SDS011;4255;48.730;9.156;2023-03-17T08:59:59;3.10;;;2.80;;
8435;SDS011;4255;48.730;9.156;2023-03-17T09:02:25;2.87;;;2.67;;
8435;SDS011;4255;48.730;9.156;2023-03-17T09:04:52;2.87;;;2.70;;
8435;SDS011;4255;48.730;9.156;2023-03-17T09:07:18;5.97;;;2.77;;
8435;SDS011;4255;48.730;9.156;2023-03-17T09:09:44;2.70;;;2.50;;
8435;SDS011;4255;48.730;9.156;2023-03-17T09:12:10;3.63;;;3.33;;
8435;SDS011;4255;48.730;9.156;2023-03-17T09:14:36;3.17;;;2.60;;
8435;SDS011;4255;48.730;9.156;2023-03-17T09:17:03;3.43;;;2.50;;
8435;SDS011;4255;48.730;9.156;2023-03-17T09:19:29;3.10;;;2.80;;
8435;SDS011;4255;48.730;9.156;2023-03-17T09:21:54;2.70;;;2.50;;
8435;SDS011;4255;48.730;9.156;2023-03-17T09:24:21;2.83;;;2.63;;
8435;SDS011;4255;48.730;9.156;2023-03-17T09:26:46;4.40;;;2.50;;
8435;SDS011;4255;48.730;9.156;2023-03-17T09:29:12;2.37;;;2.17;;
8435;SDS011;4255;48.730;9.156;2023-03-17T09:31:39;2.33;;;2.00;;
8435;SDS011;4255;48.730;9.156;2023-03-17T09:34:05;1.97;;;1.77;;
8435;SDS011;4255;48.730;9.156;2023-03-17T09:36:31;7.63;;;1.90;;
8435;SDS011;4255;48.730;9.156;2023-03-17T09:38:57;1.80;;;1.70;;
8435;SDS011;4255;48.730;9.156;2023-03-17T09:44:33;3.03;;;2.33;;
8435;SDS011;4255;48.730;9.156;2023-03-17T09:50:09;3.03;;;2.30;;
8435;SDS011;4255;48.730;9.156;2023-03-17T09:52:39;1.90;;;1.80;;
8435;SDS011;4255;48.730;9.156;2023-03-17T09:55:09;2.20;;;2.03;;
8435;SDS011;4255;48.730;9.156;2023-03-17T09:57:44;1.87;;;1.77;;
8435;SDS011;4255;48.730;9.156;2023-03-17T10:00:12;2.63;;;2.20;;
8435;SDS011;4255;48.730;9.156;2023-03-17T10:02:40;1.70;;;1.60;;
8435;SDS011;4255;48.730;9.156;2023-03-17T10:05:20;2.90;;;2.00;;
8435;SDS011;4255;48.730;9.156;2023-03-17T10:10:49;1.73;;;1.60;;
8435;SDS011;4255;48.730;9.156;2023-03-17T10:16:13;2.20;;;2.10;;
8435;SDS011;4255;48.730;9.156;2023-03-17T10:19:04;1.90;;;1.70;;
8435;SDS011;4255;48.730;9.156;2023-03-17T10:22:37;1.90;;;1.80;;
8435;SDS011;4255;48.730;9.156;2023-03-17T10:24:42;3.47;;;2.70;;
8435;SDS011;4255;48.730;9.156;2023-03-17T10:27:13;2.93;;;1.87;;
8435;SDS011;4255;48.730;9.156;2023-03-17T10:29:40;2.50;;;1.77;;
8435;SDS011;4255;48.730;9.156;2023-03-17T10:32:08;2.30;;;1.93;;
8435;SDS011;4255;48.730;9.156;2023-03-17T10:34:37;3.07;;;2.07;;
8435;SDS011;4255;48.730;9.156;2023-03-17T10:37:22;2.73;;;2.17;;
8435;SDS011;4255;48.730;9.156;2023-03-17T10:39:50;2.07;;;1.90;;
8435;SDS011;4255;48.730;9.156;2023-03-17T10:42:23;2.60;;;2.40;;
8435;SDS011;4255;48.730;9.156;2023-03-17T10:45:01;1.80;;;1.70;;
8435;SDS011;4255;48.730;9.156;2023-03-17T10:47:47;2.60;;;2.00;;
8435;SDS011;4255;48.730;9.156;2023-03-17T10:52:46;3.17;;;1.80;;
8435;SDS011;4255;48.730;9.156;2023-03-17T10:55:19;2.10;;;1.60;;
8435;SDS011;4255;48.730;9.156;2023-03-17T10:58:34;2.97;;;1.83;;
8435;SDS011;4255;48.730;9.156;2023-03-17T11:00:45;2.87;;;2.13;;
8435;SDS011;4255;48.730;9.156;2023-03-17T11:03:23;1.97;;;1.87;;
8435;SDS011;4255;48.730;9.156;2023-03-17T11:05:55;6.33;;;3.23;;
8435;SDS011;4255;48.730;9.156;2023-03-17T11:08:24;4.17;;;1.83;;
8435;SDS011;4255;48.730;9.156;2023-03-17T11:10:55;4.70;;;3.40;;
8435;SDS011;4255;48.730;9.156;2023-03-17T11:13:21;5.53;;;3.10;;
8435;SDS011;4255;48.730;9.156;2023-03-17T11:15:57;2.77;;;2.50;;
8435;SDS011;4255;48.730;9.156;2023-03-17T11:18:46;2.53;;;2.17;;
8435;SDS011;4255;48.730;9.156;2023-03-17T11:21:57;3.10;;;2.80;;
8435;SDS011;4255;48.730;9.156;2023-03-17T11:24:28;3.73;;;3.10;;
8435;SDS011;4255;48.730;9.156;2023-03-17T11:26:59;5.23;;;3.80;;
8435;SDS011;4255;48.730;9.156;2023-03-17T11:51:57;3.37;;;2.63;;
8435;SDS011;4255;48.730;9.156;2023-03-17T11:57:22;3.30;;;2.10;;
8435;SDS011;4255;48.730;9.156;2023-03-17T12:00:03;2.20;;;2.10;;
8435;SDS011;4255;48.730;9.156;2023-03-17T12:02:49;3.30;;;2.63;;
8435;SDS011;4255;48.730;9.156;2023-03-17T12:05:26;3.43;;;2.40;;
8435;SDS011;4255;48.730;9.156;2023-03-17T12:10:26;6.10;;;2.70;;
8435;SDS011;4255;48.730;9.156;2023-03-17T12:13:15;3.13;;;2.87;;
8435;SDS011;4255;48.730;9.156;2023-03-17T12:15:51;3.17;;;2.40;;
8435;SDS011;4255;48.730;9.156;2023-03-17T12:18:25;4.10;;;2.50;;
8435;SDS011;4255;48.730;9.156;2023-03-17T12:26:27;2.63;;;2.43;;
8435;SDS011;4255;48.730;9.156;2023-03-17T12:28:59;3.53;;;2.23;;
8435;SDS011;4255;48.730;9.156;2023-03-17T12:31:36;3.20;;;2.17;;
8435;SDS011;4255;48.730;9.156;2023-03-17T12:36:46;3.00;;;2.07;;
8435;SDS011;4255;48.730;9.156;2023-03-17T12:39:13;6.00;;;4.70;;
8435;SDS011;4255;48.730;9.156;2023-03-17T12:44:45;2.17;;;1.97;;
8435;SDS011;4255;48.730;9.156;2023-03-17T12:55:39;5.13;;;2.30;;
8435;SDS011;4255;48.730;9.156;2023-03-17T12:58:24;2.33;;;2.13;;
8435;SDS011;4255;48.730;9.156;2023-03-17T13:01:21;2.23;;;2.10;;
8435;SDS011;4255;48.730;9.156;2023-03-17T13:06:37;2.70;;;2.20;;
8435;SDS011;4255;48.730;9.156;2023-03-17T13:09:25;2.50;;;2.30;;
8435;SDS011;4255;48.730;9.156;2023-03-17T13:11:57;2.27;;;2.07;;
8435;SDS011;4255;48.730;9.156;2023-03-17T13:16:51;4.80;;;2.00;;
8435;SDS011;4255;48.730;9.156;2023-03-17T13:27:58;2.87;;;2.40;;
8435;SDS011;4255;48.730;9.156;2023-03-17T13:29:59;2.10;;;1.90;;
8435;SDS011;4255;48.730;9.156;2023-03-17T13:32:56;1.90;;;1.80;;
8435;SDS011;4255;48.730;9.156;2023-03-17T13:38:25;1.80;;;1.70;;
8435;SDS011;4255;48.730;9.156;2023-03-17T13:41:16;2.20;;;1.97;;
8435;SDS011;4255;48.730;9.156;2023-03-17T13:46:51;2.10;;;2.00;;
8435;SDS011;4255;48.730;9.156;2023-03-17T13:52:02;1.53;;;1.43;;
8435;SDS011;4255;48.730;9.156;2023-03-17T13:54:49;2.57;;;2.00;;
8435;SDS011;4255;48.730;9.156;2023-03-17T14:00:00;1.87;;;1.77;;
8435;SDS011;4255;48.730;9.156;2023-03-17T14:02:37;2.13;;;1.80;;
8435;SDS011;4255;48.730;9.156;2023-03-17T14:05:05;4.90;;;1.90;;
8435;SDS011;4255;48.730;9.156;2023-03-17T14:07:45;1.60;;;1.50;;
8435;SDS011;4255;48.730;9.156;2023-03-17T14:10:18;2.13;;;1.63;;
8435;SDS011;4255;48.730;9.156;2023-03-17T14:15:38;1.63;;;1.53;;
8435;SDS011;4255;48.730;9.156;2023-03-17T14:18:27;1.80;;;1.50;;
8435;SDS011;4255;48.730;9.156;2023-03-17T14:20:57;1.60;;;1.50;;
8435;SDS011;4255;48.730;9.156;2023-03-17T14:23:25;1.57;;;1.47;;
8435;SDS011;4255;48.730;9.156;2023-03-17T14:25:53;1.93;;;1.80;;
8435;SDS011;4255;48.730;9.156;2023-03-17T14:28:22;3.20;;;1.77;;
8435;SDS011;4255;48.730;9.156;2023-03-17T14:30:52;1.97;;;1.73;;
8435;SDS011;4255;48.730;9.156;2023-03-17T14:33:21;1.87;;;1.77;;
8435;SDS011;4255;48.730;9.156;2023-03-17T14:35:50;2.73;;;1.60;;
8435;SDS011;4255;48.730;9.156;2023-03-17T14:38:19;1.90;;;1.70;;
8435;SDS011;4255;48.730;9.156;2023-03-17T14:40:50;5.67;;;2.77;;
8435;SDS011;4255;48.730;9.156;2023-03-17T14:43:44;2.20;;;2.10;;
8435;SDS011;4255;48.730;9.156;2023-03-17T14:46:14;1.67;;;1.57;;
8435;SDS011;4255;48.730;9.156;2023-03-17T14:48:45;5.13;;;1.77;;
8435;SDS011;4255;48.730;9.156;2023-03-17T14:51:23;2.37;;;1.70;;
8435;SDS011;4255;48.730;9.156;2023-03-17T14:54:04;2.50;;;1.90;;
8435;SDS011;4255;48.730;9.156;2023-03-17T14:56:39;1.60;;;1.50;;
8435;SDS011;4255;48.730;9.156;2023-03-17T14:59:16;1.93;;;1.63;;
8435;SDS011;4255;48.730;9.156;2023-03-17T15:01:51;2.80;;;1.90;;
8435;SDS011;4255;48.730;9.156;2023-03-17T15:04:20;3.77;;;2.07;;
8435;SDS011;4255;48.730;9.156;2023-03-17T15:09:16;3.43;;;1.90;;
8435;SDS011;4255;48.730;9.156;2023-03-17T15:11:52;1.80;;;1.70;;
8435;SDS011;4255;48.730;9.156;2023-03-17T15:14:30;1.80;;;1.70;;
8435;SDS011;4255;48.730;9.156;2023-03-17T15:16:59;2.80;;;1.93;;
8435;SDS011;4255;48.730;9.156;2023-03-17T15:19:28;2.07;;;1.87;;
8435;SDS011;4255;48.730;9.156;2023-03-17T15:22:03;1.67;;;1.57;;
8435;SDS011;4255;48.730;9.156;2023-03-17T15:24:45;1.87;;;1.67;;
8435;SDS011;4255;48.730;9.156;2023-03-17T15:27:34;2.10;;;1.80;;
8435;SDS011;4255;48.730;9.156;2023-03-17T15:29:59;2.40;;;1.77;;
8435;SDS011;4255;48.730;9.156;2023-03-17T15:32:25;7.33;;;2.00;;
8435;SDS011;4255;48.730;9.156;2023-03-17T15:34:52;2.90;;;2.00;;
8435;SDS011;4255;48.730;9.156;2023-03-17T15:37:24;1.67;;;1.57;;
8435;SDS011;4255;48.730;9.156;2023-03-17T15:39:52;2.03;;;1.93;;
8435;SDS011;4255;48.730;9.156;2023-03-17T15:42:23;3.13;;;1.53;;
8435;SDS011;4255;48.730;9.156;2023-03-17T15:44:52;2.13;;;1.80;;
8435;SDS011;4255;48.730;9.156;2023-03-17T15:47:19;2.87;;;2.67;;
8435;SDS011;4255;48.730;9.156;2023-03-17T15:49:47;2.17;;;2.00;;
8435;SDS011;4255;48.730;9.156;2023-03-17T15:52:15;2.43;;;2.23;;
8435;SDS011;4255;48.730;9.156;2023-03-17T15:54:41;2.40;;;2.20;;
8435;SDS011;4255;48.730;9.156;2023-03-17T15:57:08;2.47;;;1.90;;
8435;SDS011;4255;48.730;9.156;2023-03-17T15:59:35;2.53;;;2.33;;
8435;SDS011;4255;48.730;9.156;2023-03-17T16:02:01;3.67;;;2.43;;
8435;SDS011;4255;48.730;9.156;2023-03-17T16:04:27;2.73;;;2.53;;
8435;SDS011;4255;48.730;9.156;2023-03-17T16:06:53;1.93;;;1.80;;
8435;SDS011;4255;48.730;9.156;2023-03-17T16:09:19;4.10;;;2.33;;
8435;SDS011;4255;48.730;9.156;2023-03-17T16:11:45;3.07;;;2.17;;
8435;SDS011;4255;48.730;9.156;2023-03-17T16:14:10;6.20;;;2.20;;
8435;SDS011;4255;48.730;9.156;2023-03-17T16:16:37;3.37;;;2.10;;
8435;SDS011;4255;48.730;9.156;2023-03-17T16:19:05;1.77;;;1.67;;
8435;SDS011;4255;48.730;9.156;2023-03-17T16:21:34;2.67;;;2.07;;
8435;SDS011;4255;48.730;9.156;2023-03-17T16:24:01;4.80;;;2.20;;
8435;SDS011;4255;48.730;9.156;2023-03-17T16:26:27;6.00;;;2.40;;
8435;SDS011;4255;48.730;9.156;2023-03-17T16:28:52;5.13;;;2.10;;
8435;SDS011;4255;48.730;9.156;2023-03-17T16:31:19;5.20;;;2.03;;
8435;SDS011;4255;48.730;9.156;2023-03-17T16:33:48;3.50;;;2.07;;
8435;SDS011;4255;48.730;9.156;2023-03-17T16:36:15;2.57;;;2.20;;
8435;SDS011;4255;48.730;9.156;2023-03-17T16:38:42;3.67;;;2.17;;
8435;SDS011;4255;48.730;9.156;2023-03-17T16:41:19;4.77;;;2.20;;
8435;SDS011;4255;48.730;9.156;2023-03-17T16:43:47;2.43;;;2.23;;
8435;SDS011;4255;48.730;9.156;2023-03-17T16:46:20;4.67;;;2.60;;
8435;SDS011;4255;48.730;9.156;2023-03-17T16:48:46;3.50;;;2.80;;
8435;SDS011;4255;48.730;9.156;2023-03-17T16:51:13;5.70;;;3.07;;
8435;SDS011;4255;48.730;9.156;2023-03-17T16:53:39;6.67;;;3.93;;
8435;SDS011;4255;48.730;9.156;2023-03-17T16:56:08;6.90;;;3.23;;
8435;SDS011;4255;48.730;9.156;2023-03-17T16:58:38;5.20;;;3.20;;
8435;SDS011;4255;48.730;9.156;2023-03-17T17:01:11;3.37;;;2.50;;
8435;SDS011;4255;48.730;9.156;2023-03-17T17:03:41;4.03;;;2.60;;